Time;durP1;ratioP1;P1;durP2;ratioP2;P2;SDS_P1;SDS_P2;PMS_P1;PMS_P2;Temp;Humidity;BMP_temperature;BMP_pressure;BME280_temperature;BME280_humidity;BME280_pressure;Samples;Min_cycle;Max_cycle;Signal;HPM_P1;HPM_P2
2023/06/19 00:00:30;;;;;;;6.57;4.60;;;25.60;1.00;;;;;;4922674;29;20043;-55
2023/06/19 00:02:57;;;;;;;4.88;4.20;;;25.60;1.00;;;;;;5010552;23;20139;-54
2023/06/19 00:05:25;;;;;;;4.85;4.07;;;25.60;1.00;;;;;;4900197;29;20469;-56
2023/06/19 00:07:52;;;;;;;4.97;3.55;;;25.60;1.00;;;;;;4906540;29;20048;-56
2023/06/19 00:10:19;;;;;;;5.43;4.07;;;25.60;1.00;;;;;;4907856;29;20417;-53
2023/06/19 00:12:45;;;;;;;5.72;3.97;;;25.50;1.00;;;;;;4901328;29;20093;-56
2023/06/19 00:15:12;;;;;;;4.97;4.45;;;25.50;1.00;;;;;;4907922;29;20040;-56
2023/06/19 00:17:39;;;;;;;5.55;4.18;;;25.50;1.00;;;;;;4907912;29;20052;-57
2023/06/19 00:20:06;;;;;;;4.65;4.05;;;25.50;1.00;;;;;;4909527;29;20521;-57
2023/06/19 00:22:33;;;;;;;5.60;4.28;;;25.50;1.00;;;;;;4912352;29;20055;-56
2023/06/19 00:25:00;;;;;;;8.13;5.20;;;25.50;1.00;;;;;;4898586;29;20048;-56
2023/06/19 00:27:27;;;;;;;4.95;4.22;;;25.50;1.00;;;;;;4915455;29;20488;-57
2023/06/19 00:29:54;;;;;;;5.40;4.47;;;25.50;1.00;;;;;;4915498;29;20374;-56
2023/06/19 00:35:18;;;;;;;5.13;4.28;;;25.50;1.00;;;;;;5142296;23;20452;-55
2023/06/19 00:37:46;;;;;;;9.38;4.30;;;25.50;1.00;;;;;;4902001;29;20055;-52
2023/06/19 00:40:24;;;;;;;4.97;4.45;;;25.50;1.00;;;;;;4910411;29;20044;-53
2023/06/19 00:42:52;;;;;;;6.43;4.05;;;25.50;1.00;;;;;;4925365;29;20040;-56
2023/06/19 00:45:19;;;;;;;5.68;4.60;;;25.50;1.00;;;;;;4913620;29;20135;-56
2023/06/19 00:47:46;;;;;;;5.40;4.18;;;25.50;1.00;;;;;;4932189;29;20043;-56
2023/06/19 00:50:13;;;;;;;6.03;4.50;;;25.50;1.00;;;;;;4927238;29;20115;-57
2023/06/19 00:52:40;;;;;;;7.60;4.28;;;25.50;1.00;;;;;;4920712;29;20464;-53
2023/06/19 00:55:09;;;;;;;5.45;4.78;;;25.50;1.00;;;;;;4917486;29;20404;-53
2023/06/19 00:57:36;;;;;;;4.82;4.20;;;25.50;1.00;;;;;;4923427;29;20067;-57
2023/06/19 01:00:07;;;;;;;5.80;4.60;;;25.40;1.00;;;;;;4922003;29;20513;-57
2023/06/19 01:02:35;;;;;;;6.22;4.20;;;25.40;1.00;;;;;;4916090;29;20056;-55
2023/06/19 01:05:03;;;;;;;5.65;4.07;;;25.40;1.00;;;;;;4929022;29;20048;-55
2023/06/19 01:07:44;;;;;;;6.25;4.45;;;25.40;1.00;;;;;;5015494;23;20209;-56
2023/06/19 01:10:14;;;;;;;6.82;4.82;;;25.40;1.00;;;;;;4927535;29;20075;-54
2023/06/19 01:12:50;;;;;;;6.18;3.67;;;25.40;1.00;;;;;;4911019;29;20414;-56
2023/06/19 01:15:17;;;;;;;6.30;4.40;;;25.40;1.00;;;;;;4912348;29;20393;-54
2023/06/19 01:17:47;;;;;;;6.03;4.40;;;25.40;1.00;;;;;;4901922;29;20423;-56
2023/06/19 01:20:14;;;;;;;5.57;4.45;;;25.50;1.00;;;;;;4906910;29;20135;-56
2023/06/19 01:22:45;;;;;;;5.05;4.25;;;25.40;1.00;;;;;;4909430;29;20458;-51
2023/06/19 01:25:14;;;;;;;5.90;5.00;;;25.40;1.00;;;;;;4914877;29;20107;-53
2023/06/19 01:27:42;;;;;;;6.80;4.60;;;25.40;1.00;;;;;;4916805;29;20077;-52
2023/06/19 01:30:11;;;;;;;4.63;3.95;;;25.40;1.00;;;;;;4916915;29;20488;-54
2023/06/19 01:32:56;;;;;;;7.10;4.60;;;25.40;1.00;;;;;;4916388;29;20044;-52
2023/06/19 01:35:28;;;;;;;5.07;4.05;;;25.40;1.00;;;;;;4917066;29;20720;-52
2023/06/19 01:37:59;;;;;;;7.00;4.78;;;25.40;1.00;;;;;;4917156;29;20496;-50
2023/06/19 01:40:31;;;;;;;5.05;4.18;;;25.40;1.00;;;;;;4914228;29;20575;-53
2023/06/19 01:43:00;;;;;;;6.07;4.38;;;25.40;1.00;;;;;;4903452;29;20076;-54
2023/06/19 01:45:29;;;;;;;6.28;4.10;;;25.40;1.00;;;;;;4903007;29;20481;-49
2023/06/19 01:47:57;;;;;;;5.85;4.50;;;25.40;1.00;;;;;;4912718;29;20049;-49
2023/06/19 01:50:24;;;;;;;5.07;4.32;;;25.40;1.00;;;;;;4910565;29;20044;-49
2023/06/19 01:52:51;;;;;;;4.60;4.05;;;25.40;1.00;;;;;;4903779;29;20054;-49
2023/06/19 01:55:19;;;;;;;5.95;4.97;;;25.40;1.00;;;;;;4902042;29;20119;-51
2023/06/19 01:57:46;;;;;;;4.50;4.10;;;25.40;1.00;;;;;;4899080;29;20468;-52
2023/06/19 02:00:13;;;;;;;6.65;4.60;;;25.40;1.00;;;;;;4903769;29;20144;-49
2023/06/19 02:02:39;;;;;;;5.97;4.90;;;25.40;1.00;;;;;;4916554;29;20452;-49
2023/06/19 02:05:07;;;;;;;7.15;4.78;;;25.40;1.00;;;;;;4898837;29;20049;-50
2023/06/19 02:07:34;;;;;;;5.85;4.68;;;25.40;1.00;;;;;;4905742;29;20103;-52
2023/06/19 02:10:01;;;;;;;6.07;4.53;;;25.40;1.00;;;;;;4898141;29;20075;-50
2023/06/19 02:12:28;;;;;;;5.05;4.30;;;25.40;1.00;;;;;;4913969;29;20408;-52
2023/06/19 02:14:54;;;;;;;6.00;4.68;;;25.40;1.00;;;;;;4911134;29;20222;-49
2023/06/19 02:17:21;;;;;;;8.57;4.80;;;25.40;1.00;;;;;;4910061;29;20049;-50
2023/06/19 02:19:48;;;;;;;5.82;4.05;;;25.40;1.00;;;;;;4912349;29;20571;-52
2023/06/19 02:22:18;;;;;;;5.30;3.75;;;25.40;1.00;;;;;;4915592;29;20195;-50
2023/06/19 02:24:45;;;;;;;10.73;4.72;;;25.40;1.00;;;;;;4916253;29;20400;-50
2023/06/19 02:27:12;;;;;;;5.03;4.20;;;25.30;1.00;;;;;;4909149;29;20063;-51
2023/06/19 02:29:39;;;;;;;5.53;4.22;;;25.40;1.00;;;;;;4915395;29;20487;-54
2023/06/19 02:32:06;;;;;;;5.50;3.95;;;25.30;1.00;;;;;;4896657;29;20556;-50
2023/06/19 02:34:33;;;;;;;6.18;4.13;;;25.30;1.00;;;;;;4898355;29;20067;-50
2023/06/19 02:39:56;;;;;;;4.38;3.67;;;25.30;1.00;;;;;;5213728;23;20063;-51
2023/06/19 02:42:23;;;;;;;5.97;3.90;;;25.40;1.00;;;;;;4918571;29;20131;-50
2023/06/19 02:44:50;;;;;;;5.30;4.10;;;25.30;1.00;;;;;;4919389;29;20044;-51
2023/06/19 02:47:16;;;;;;;4.80;3.72;;;25.30;1.00;;;;;;4921402;29;20091;-51
2023/06/19 02:49:44;;;;;;;4.85;3.75;;;25.30;1.00;;;;;;4923431;29;20047;-52
2023/06/19 02:52:11;;;;;;;5.45;3.42;;;25.30;1.00;;;;;;4922118;29;20044;-52
2023/06/19 02:54:38;;;;;;;5.20;3.13;;;25.30;1.00;;;;;;4930908;29;20127;-50
2023/06/19 02:57:05;;;;;;;7.15;3.67;;;25.30;1.00;;;;;;4915387;29;20112;-50
2023/06/19 02:59:32;;;;;;;4.68;3.67;;;25.30;1.00;;;;;;4929622;29;20051;-51
2023/06/19 03:01:58;;;;;;;4.55;3.28;;;25.30;1.00;;;;;;4921724;29;20079;-51
2023/06/19 03:04:25;;;;;;;4.30;3.58;;;25.30;1.00;;;;;;4928091;29;20415;-51
2023/06/19 03:06:55;;;;;;;3.50;2.85;;;25.30;1.00;;;;;;4916087;29;20416;-52
2023/06/19 03:09:22;;;;;;;4.25;3.13;;;25.30;1.00;;;;;;4932522;29;20411;-50
2023/06/19 03:11:48;;;;;;;4.35;3.33;;;25.30;1.00;;;;;;4932354;23;20108;-51
2023/06/19 03:14:15;;;;;;;3.80;2.92;;;25.30;1.00;;;;;;4918862;29;20040;-51
2023/06/19 03:16:42;;;;;;;4.07;2.78;;;25.30;1.00;;;;;;4918107;29;20048;-54
2023/06/19 03:19:09;;;;;;;5.65;3.88;;;25.30;1.00;;;;;;4915999;29;20040;-55
2023/06/19 03:21:36;;;;;;;4.00;2.65;;;25.30;1.00;;;;;;4922338;29;20048;-52
2023/06/19 03:24:04;;;;;;;3.45;2.95;;;25.30;1.00;;;;;;4923154;29;20059;-51
2023/06/19 03:26:31;;;;;;;4.70;3.28;;;25.30;1.00;;;;;;4918401;29;20036;-51
2023/06/19 03:29:01;;;;;;;4.20;3.15;;;25.30;1.00;;;;;;4915930;29;20059;-51
2023/06/19 03:31:36;;;;;;;3.65;2.70;;;25.30;1.00;;;;;;4924920;29;20076;-53
2023/06/19 03:34:03;;;;;;;4.35;2.85;;;25.30;1.00;;;;;;4919005;29;20045;-51
2023/06/19 03:36:29;;;;;;;4.95;3.10;;;25.20;1.00;;;;;;4918451;29;20591;-53
2023/06/19 03:39:04;;;;;;;5.28;3.20;;;25.20;1.00;;;;;;4914651;29;20067;-53
2023/06/19 03:41:31;;;;;;;3.63;2.55;;;25.20;1.00;;;;;;5100279;23;20059;-51
2023/06/19 03:43:57;;;;;;;3.55;2.70;;;25.20;1.00;;;;;;4897768;29;20075;-52
2023/06/19 03:46:24;;;;;;;3.83;2.67;;;25.20;1.00;;;;;;4898586;29;20071;-51
2023/06/19 03:48:51;;;;;;;5.30;3.33;;;25.20;1.00;;;;;;4898391;29;20144;-52
2023/06/19 03:51:18;;;;;;;4.35;3.30;;;25.20;1.00;;;;;;4906164;29;20048;-51
2023/06/19 03:53:45;;;;;;;4.78;3.08;;;25.20;1.00;;;;;;4914129;29;20448;-51
2023/06/19 03:56:12;;;;;;;3.28;2.70;;;25.20;1.00;;;;;;4914363;29;20135;-55
2023/06/19 03:58:39;;;;;;;3.90;3.00;;;25.20;1.00;;;;;;4913889;29;20060;-52
2023/06/19 04:01:05;;;;;;;3.95;2.55;;;25.20;1.00;;;;;;4910076;29;20423;-51
2023/06/19 04:03:32;;;;;;;3.67;2.33;;;25.20;1.00;;;;;;4912280;29;20374;-51
2023/06/19 04:06:01;;;;;;;4.07;2.50;;;25.20;1.00;;;;;;4907562;29;20055;-50
2023/06/19 04:08:28;;;;;;;6.28;3.88;;;25.20;1.00;;;;;;4912076;29;20143;-50
2023/06/19 04:10:55;;;;;;;7.15;5.20;;;25.20;1.00;;;;;;4907153;29;20560;-52
2023/06/19 04:13:21;;;;;;;8.63;6.35;;;25.20;1.00;;;;;;4911781;29;20123;-50
2023/06/19 04:15:50;;;;;;;9.40;6.90;;;25.10;1.00;;;;;;4917575;29;20067;-55
2023/06/19 04:18:17;;;;;;;12.15;8.13;;;25.10;1.00;;;;;;4919281;29;20040;-53
2023/06/19 04:20:44;;;;;;;20.42;9.07;;;25.10;1.00;;;;;;4919740;29;20040;-51
2023/06/19 04:23:12;;;;;;;16.33;11.07;;;25.10;1.00;;;;;;4920872;29;20076;-52
2023/06/19 04:25:39;;;;;;;20.38;10.68;;;25.10;1.00;;;;;;4917651;29;20068;-53
2023/06/19 04:28:06;;;;;;;16.33;10.15;;;25.10;1.00;;;;;;4916828;29;20056;-54
2023/06/19 04:30:33;;;;;;;12.07;8.20;;;25.10;1.00;;;;;;4919282;29;20050;-53
2023/06/19 04:33:00;;;;;;;13.52;7.88;;;25.10;1.00;;;;;;4918470;29;20044;-54
2023/06/19 04:35:27;;;;;;;17.13;7.65;;;25.10;1.00;;;;;;4918775;29;20036;-50
2023/06/19 04:37:54;;;;;;;12.50;7.57;;;25.10;1.00;;;;;;4918525;29;20046;-54
2023/06/19 04:40:20;;;;;;;21.27;7.60;;;25.10;1.00;;;;;;4918673;29;20523;-51
2023/06/19 04:42:47;;;;;;;19.95;6.90;;;25.10;1.00;;;;;;4955682;23;20058;-53
2023/06/19 04:45:14;;;;;;;12.68;6.97;;;25.10;1.00;;;;;;4937566;29;20039;-55
2023/06/19 04:47:41;;;;;;;9.18;6.25;;;25.10;1.00;;;;;;4937414;29;20472;-52
2023/06/19 04:50:21;;;;;;;11.90;6.30;;;25.10;1.00;;;;;;4937365;29;20050;-56
2023/06/19 04:52:50;;;;;;;13.07;6.20;;;25.10;1.00;;;;;;4934878;29;20051;-53
2023/06/19 04:55:18;;;;;;;9.98;6.00;;;25.10;1.00;;;;;;4936776;29;20040;-52
2023/06/19 04:57:45;;;;;;;9.02;6.45;;;25.10;1.00;;;;;;4935741;29;20071;-55
2023/06/19 05:00:14;;;;;;;15.48;6.22;;;25.00;1.00;;;;;;4937041;29;20491;-55
2023/06/19 05:02:43;;;;;;;8.10;5.60;;;25.00;1.00;;;;;;4936922;29;20059;-50
2023/06/19 05:05:10;;;;;;;9.57;6.25;;;25.10;1.00;;;;;;4937151;29;20456;-56
2023/06/19 05:07:38;;;;;;;11.20;5.82;;;25.10;1.00;;;;;;4936927;29;20043;-53
2023/06/19 05:10:06;;;;;;;14.20;6.47;;;25.00;1.00;;;;;;4936696;29;20131;-53
2023/06/19 05:12:35;;;;;;;9.38;6.00;;;25.00;1.00;;;;;;4937032;29;20149;-50
2023/06/19 05:15:02;;;;;;;10.82;6.10;;;25.00;1.00;;;;;;4936956;29;20043;-55
2023/06/19 05:17:29;;;;;;;7.65;5.35;;;25.00;1.00;;;;;;4936900;29;20483;-55
2023/06/19 05:19:56;;;;;;;8.52;5.20;;;25.00;1.00;;;;;;4936819;29;20423;-54
2023/06/19 05:22:23;;;;;;;12.38;6.32;;;25.00;1.00;;;;;;4936682;29;20114;-52
2023/06/19 05:24:50;;;;;;;11.30;6.28;;;25.10;1.00;;;;;;4936024;29;20129;-50
2023/06/19 05:27:17;;;;;;;7.75;6.22;;;25.00;1.00;;;;;;4936735;29;20052;-55
2023/06/19 05:29:44;;;;;;;13.10;5.95;;;25.00;1.00;;;;;;4936710;29;20564;-53
2023/06/19 05:32:11;;;;;;;10.32;5.15;;;25.00;1.00;;;;;;4936307;29;20047;-53
2023/06/19 05:34:38;;;;;;;12.40;5.07;;;25.00;1.00;;;;;;4936786;29;20403;-50
2023/06/19 05:37:05;;;;;;;8.55;5.45;;;25.00;1.00;;;;;;4936550;29;20420;-55
2023/06/19 05:39:31;;;;;;;8.57;5.35;;;25.00;1.00;;;;;;4936503;29;20059;-57
2023/06/19 05:41:58;;;;;;;7.40;4.80;;;25.00;1.00;;;;;;4935988;29;20083;-54
2023/06/19 05:44:25;;;;;;;12.25;6.25;;;25.00;1.00;;;;;;5107634;23;20465;-57
2023/06/19 05:46:52;;;;;;;10.73;6.10;;;25.00;1.00;;;;;;4917254;29;20500;-53
2023/06/19 05:49:19;;;;;;;8.88;5.47;;;25.00;1.00;;;;;;4917328;29;20036;-57
2023/06/19 05:51:46;;;;;;;9.00;6.57;;;25.00;1.00;;;;;;4902286;29;20528;-53
2023/06/19 05:54:13;;;;;;;10.80;6.38;;;25.00;1.00;;;;;;4898111;29;20045;-50
2023/06/19 05:56:39;;;;;;;11.23;5.82;;;25.00;1.00;;;;;;4898471;29;20101;-52
2023/06/19 05:59:06;;;;;;;9.48;5.80;;;25.00;1.00;;;;;;4898291;29;20054;-56
2023/06/19 06:01:33;;;;;;;11.93;6.15;;;25.00;1.00;;;;;;4897884;29;20052;-51
2023/06/19 06:04:01;;;;;;;11.23;7.00;;;25.00;1.00;;;;;;4898090;29;20049;-51
2023/06/19 06:06:28;;;;;;;9.70;6.03;;;24.90;1.00;;;;;;4898384;29;20045;-55
2023/06/19 06:08:55;;;;;;;9.73;6.68;;;24.90;1.00;;;;;;4898089;29;20493;-55
2023/06/19 06:11:22;;;;;;;14.55;6.72;;;25.00;1.00;;;;;;4897964;29;20476;-56
2023/06/19 06:13:49;;;;;;;8.02;6.85;;;24.90;1.00;;;;;;4901993;29;20081;-55
2023/06/19 06:16:16;;;;;;;11.70;6.78;;;24.90;1.00;;;;;;4898050;29;20556;-55
2023/06/19 06:18:45;;;;;;;13.70;7.32;;;25.00;1.00;;;;;;4897880;29;20492;-50
2023/06/19 06:21:12;;;;;;;11.18;6.88;;;24.90;1.00;;;;;;4897835;29;20048;-52
2023/06/19 06:23:41;;;;;;;11.68;7.65;;;25.00;1.00;;;;;;4897619;29;20040;-57
2023/06/19 06:26:08;;;;;;;9.82;6.75;;;24.90;1.00;;;;;;4899919;29;20392;-51
2023/06/19 06:28:35;;;;;;;12.32;7.07;;;24.90;1.00;;;;;;4916726;29;20066;-51
2023/06/19 06:31:02;;;;;;;11.82;7.50;;;24.90;1.00;;;;;;4916449;29;20469;-53
2023/06/19 06:33:29;;;;;;;14.32;6.65;;;24.90;1.00;;;;;;4916186;29;20040;-51
2023/06/19 06:35:58;;;;;;;14.23;6.93;;;24.90;1.00;;;;;;4916537;29;20168;-50
2023/06/19 06:38:24;;;;;;;8.88;6.25;;;24.90;1.00;;;;;;4916244;29;20062;-51
2023/06/19 06:40:52;;;;;;;11.70;7.40;;;24.90;1.00;;;;;;4916363;29;20052;-51
2023/06/19 06:43:18;;;;;;;9.90;6.55;;;24.90;1.00;;;;;;4896050;29;20500;-53
2023/06/19 06:45:45;;;;;;;14.15;5.88;;;24.90;1.00;;;;;;5029356;23;20073;-54
2023/06/19 06:48:12;;;;;;;8.35;6.35;;;24.90;1.00;;;;;;4954536;29;20065;-50
2023/06/19 06:50:41;;;;;;;11.57;6.03;;;24.90;1.00;;;;;;4954630;29;20035;-52
2023/06/19 06:53:08;;;;;;;14.02;6.55;;;24.90;1.00;;;;;;4954334;28;20118;-52
2023/06/19 06:55:35;;;;;;;9.50;5.40;;;24.90;1.00;;;;;;4954623;28;20047;-51
2023/06/19 06:58:02;;;;;;;15.18;5.63;;;24.90;1.00;;;;;;4954618;28;20042;-52
2023/06/19 07:00:29;;;;;;;11.50;5.28;;;24.80;1.00;;;;;;4953941;28;20137;-53
2023/06/19 07:02:56;;;;;;;8.85;5.72;;;24.80;1.00;;;;;;4954072;29;20051;-53
2023/06/19 07:05:23;;;;;;;9.05;5.07;;;24.80;1.00;;;;;;4954572;29;20051;-53
2023/06/19 07:07:49;;;;;;;8.10;5.10;;;24.80;1.00;;;;;;4954308;29;20047;-54
2023/06/19 07:10:16;;;;;;;9.07;5.68;;;24.80;1.00;;;;;;4953804;29;20049;-55
2023/06/19 07:12:48;;;;;;;8.13;5.20;;;24.80;1.00;;;;;;4953648;29;20036;-53
2023/06/19 07:15:15;;;;;;;8.75;6.00;;;24.80;1.00;;;;;;4965914;23;20095;-55
2023/06/19 07:17:41;;;;;;;10.95;5.95;;;24.80;1.00;;;;;;4915769;29;20213;-53
2023/06/19 07:20:09;;;;;;;7.18;4.90;;;24.80;1.00;;;;;;4915588;29;20068;-52
2023/06/19 07:22:36;;;;;;;9.07;5.18;;;24.80;1.00;;;;;;4915789;29;20044;-57
2023/06/19 07:25:03;;;;;;;8.27;5.40;;;24.80;1.00;;;;;;4915912;29;20464;-56
2023/06/19 07:27:30;;;;;;;9.05;5.35;;;24.80;1.00;;;;;;4916467;29;20062;-54
2023/06/19 07:29:57;;;;;;;8.45;4.80;;;24.80;1.00;;;;;;4917173;29;20050;-55
2023/06/19 07:32:24;;;;;;;7.82;4.93;;;24.80;1.00;;;;;;4917325;29;20040;-55
2023/06/19 07:34:51;;;;;;;7.35;4.60;;;24.80;1.00;;;;;;4918004;29;20194;-53
2023/06/19 07:37:17;;;;;;;7.18;4.35;;;24.80;1.00;;;;;;4917298;29;20068;-52
2023/06/19 07:39:45;;;;;;;7.22;4.95;;;24.80;1.00;;;;;;4916306;29;20182;-57
2023/06/19 07:42:14;;;;;;;7.18;4.57;;;24.80;1.00;;;;;;4916847;29;20708;-51
2023/06/19 07:47:23;;;;;;;7.15;5.00;;;24.80;1.00;;;;;;4850624;29;20494;-53
2023/06/19 07:49:50;;;;;;;10.15;4.90;;;24.70;1.00;;;;;;4859391;29;20062;-54
2023/06/19 07:52:17;;;;;;;8.32;4.65;;;24.80;1.00;;;;;;4840824;29;20056;-57
2023/06/19 07:54:56;;;;;;;8.27;5.32;;;24.80;1.00;;;;;;4841346;29;20042;-53
2023/06/19 07:57:24;;;;;;;8.25;4.10;;;24.80;1.00;;;;;;4841139;29;20042;-56
2023/06/19 07:59:51;;;;;;;13.40;4.50;;;24.70;1.00;;;;;;4839917;29;20125;-50
2023/06/19 08:02:18;;;;;;;5.78;4.03;;;24.70;1.00;;;;;;4840834;29;20521;-55
2023/06/19 08:04:46;;;;;;;9.15;4.57;;;24.70;1.00;;;;;;5471541;23;20058;-56
2023/06/19 08:07:13;;;;;;;9.07;5.35;;;24.70;1.00;;;;;;4933997;29;20052;-51
2023/06/19 08:09:40;;;;;;;7.50;4.70;;;24.70;1.00;;;;;;4933832;29;20048;-55
2023/06/19 08:12:07;;;;;;;7.70;4.57;;;24.70;1.00;;;;;;4933893;29;20082;-52
2023/06/19 08:14:34;;;;;;;6.80;3.97;;;24.70;1.00;;;;;;4934051;29;20036;-53
2023/06/19 08:17:01;;;;;;;9.32;4.50;;;24.70;1.00;;;;;;5215517;23;20055;-54
2023/06/19 08:19:27;;;;;;;7.30;4.90;;;24.70;1.00;;;;;;4914847;29;20054;-58
2023/06/19 08:21:54;;;;;;;10.02;4.90;;;24.70;1.00;;;;;;4899641;29;20100;-54
2023/06/19 08:24:21;;;;;;;6.80;5.05;;;24.70;1.00;;;;;;4896179;29;20049;-56
2023/06/19 08:26:50;;;;;;;7.57;5.40;;;24.70;1.00;;;;;;4896204;29;20067;-52
2023/06/19 08:29:18;;;;;;;8.18;4.85;;;24.70;1.00;;;;;;4895997;29;20401;-56
2023/06/19 08:31:45;;;;;;;8.05;4.18;;;24.70;1.00;;;;;;4895841;29;20048;-57
2023/06/19 08:34:12;;;;;;;6.88;4.50;;;24.70;1.00;;;;;;4895997;29;20037;-53
2023/06/19 08:36:39;;;;;;;6.88;5.22;;;24.70;1.00;;;;;;4896608;29;20060;-55
2023/06/19 08:39:07;;;;;;;6.40;4.82;;;24.70;1.00;;;;;;4895971;29;20531;-53
2023/06/19 08:41:38;;;;;;;8.98;4.85;;;24.70;1.00;;;;;;4895937;29;20144;-55
2023/06/19 08:44:06;;;;;;;7.28;4.07;;;24.70;1.00;;;;;;4895905;29;20072;-57
2023/06/19 08:46:34;;;;;;;10.80;5.75;;;24.70;1.00;;;;;;4899363;29;20288;-52
2023/06/19 08:49:01;;;;;;;10.20;4.72;;;24.70;1.00;;;;;;4917915;29;20048;-54
2023/06/19 08:51:30;;;;;;;6.32;4.72;;;24.60;1.00;;;;;;4914640;29;20056;-57
2023/06/19 08:54:04;;;;;;;10.60;5.82;;;24.60;1.00;;;;;;4913662;29;20048;-57
2023/06/19 08:56:37;;;;;;;9.40;4.80;;;24.60;1.00;;;;;;4914799;29;20032;-53
2023/06/19 08:59:12;;;;;;;8.90;5.15;;;24.60;1.00;;;;;;4908180;29;20044;-51
2023/06/19 09:01:39;;;;;;;7.57;4.68;;;24.60;1.00;;;;;;4905285;29;20051;-51
2023/06/19 09:04:13;;;;;;;7.10;5.30;;;24.60;1.00;;;;;;4898993;29;20056;-52
2023/06/19 09:06:51;;;;;;;10.38;5.57;;;24.60;1.00;;;;;;4898781;29;20049;-53
2023/06/19 09:09:23;;;;;;;7.07;4.55;;;24.60;1.00;;;;;;4898421;29;20048;-56
2023/06/19 09:12:10;;;;;;;10.95;4.82;;;24.60;1.00;;;;;;4898414;29;20056;-51
2023/06/19 09:14:44;;;;;;;11.27;5.85;;;24.60;1.00;;;;;;4903543;29;20044;-56
2023/06/19 09:17:21;;;;;;;6.78;4.65;;;24.60;1.00;;;;;;4900922;29;20048;-53
2023/06/19 09:19:53;;;;;;;7.32;4.65;;;24.60;1.00;;;;;;4916256;29;20100;-56
2023/06/19 09:22:21;;;;;;;6.93;5.13;;;24.60;1.00;;;;;;4917114;29;20061;-52
2023/06/19 09:24:49;;;;;;;6.22;4.13;;;24.60;1.00;;;;;;4918072;29;20043;-52
2023/06/19 09:27:18;;;;;;;5.57;4.90;;;24.60;1.00;;;;;;4917559;29;20055;-52
2023/06/19 09:29:50;;;;;;;6.65;4.75;;;24.60;1.00;;;;;;4917749;29;20523;-52
2023/06/19 09:32:18;;;;;;;8.13;4.38;;;24.60;1.00;;;;;;4917424;29;20045;-52
2023/06/19 09:34:49;;;;;;;8.50;4.63;;;24.60;1.00;;;;;;4916253;29;20050;-55
2023/06/19 09:37:21;;;;;;;7.07;4.68;;;24.60;1.00;;;;;;4917510;29;20163;-56
2023/06/19 09:40:00;;;;;;;8.60;5.30;;;24.60;1.00;;;;;;4917643;29;20060;-51
2023/06/19 09:42:34;;;;;;;8.45;4.60;;;24.60;1.00;;;;;;4917328;29;20394;-55
2023/06/19 09:45:04;;;;;;;7.95;5.45;;;24.60;1.00;;;;;;4916544;29;20047;-52
2023/06/19 09:50:43;;;;;;;5.25;4.22;;;24.60;1.00;;;;;;4896853;29;20206;-55
2023/06/19 09:53:10;;;;;;;7.40;4.85;;;24.60;1.00;;;;;;4898117;29;20092;-53
2023/06/19 09:55:38;;;;;;;6.25;4.47;;;24.60;1.00;;;;;;4899021;29;20408;-56
2023/06/19 09:58:05;;;;;;;6.57;4.47;;;24.60;1.00;;;;;;4898195;29;20123;-56
2023/06/19 10:00:33;;;;;;;5.78;4.55;;;24.60;1.00;;;;;;4898244;29;20497;-53
2023/06/19 10:03:02;;;;;;;8.32;4.72;;;24.60;1.00;;;;;;4898141;29;20036;-53
2023/06/19 10:05:30;;;;;;;6.03;4.28;;;24.60;1.00;;;;;;4898235;29;20108;-52
2023/06/19 10:08:02;;;;;;;6.25;4.22;;;24.60;1.00;;;;;;4898223;29;20116;-55
2023/06/19 10:10:28;;;;;;;5.70;4.03;;;24.60;1.00;;;;;;4897506;29;20321;-57
2023/06/19 10:13:16;;;;;;;6.63;5.05;;;24.60;1.00;;;;;;4897885;29;20032;-56
2023/06/19 10:15:43;;;;;;;;;;;24.60;1.00;;;;;;4898642;29;20123;-55
2023/06/19 10:18:17;;;;;;;7.03;4.40;;;24.60;1.00;;;;;;4897950;29;19931;-56
2023/06/19 10:20:46;;;;;;;8.90;3.63;;;24.60;1.00;;;;;;5114565;23;21396;-57
2023/06/19 10:23:22;;;;;;;8.50;4.13;;;24.60;1.00;;;;;;4915891;29;20048;-55
2023/06/19 10:26:00;;;;;;;6.45;4.57;;;24.60;1.00;;;;;;4916615;29;20055;-53
2023/06/19 10:28:32;;;;;;;5.32;3.85;;;24.60;1.00;;;;;;4917027;29;20055;-51
2023/06/19 10:31:03;;;;;;;5.88;4.32;;;24.60;1.00;;;;;;4899433;29;20052;-54
2023/06/19 10:33:33;;;;;;;4.90;3.90;;;24.60;1.00;;;;;;4916265;29;20076;-54
2023/06/19 10:36:13;;;;;;;5.82;3.67;;;24.60;1.00;;;;;;4916853;29;20493;-55
2023/06/19 10:38:41;;;;;;;5.30;3.88;;;24.60;1.00;;;;;;4916346;29;20036;-54
2023/06/19 10:41:15;;;;;;;9.57;4.65;;;24.60;1.00;;;;;;4916217;29;20048;-57
2023/06/19 10:43:52;;;;;;;8.38;4.32;;;24.60;1.00;;;;;;4916263;29;20512;-57
2023/06/19 10:46:21;;;;;;;7.43;4.40;;;24.60;1.00;;;;;;4916459;29;20123;-54
2023/06/19 10:48:50;;;;;;;8.20;4.78;;;24.60;1.00;;;;;;4916161;29;20088;-55
2023/06/19 10:51:20;;;;;;;5.70;4.40;;;24.60;1.00;;;;;;4916067;29;20515;-53
2023/06/19 10:53:46;;;;;;;8.13;4.28;;;24.60;1.00;;;;;;5022333;23;20058;-56
2023/06/19 10:56:13;;;;;;;4.18;3.42;;;24.60;1.00;;;;;;4918225;29;20056;-56
2023/06/19 10:58:40;;;;;;;5.80;4.78;;;24.60;1.00;;;;;;4916053;29;20059;-55
2023/06/19 11:01:07;;;;;;;7.63;4.70;;;24.60;1.00;;;;;;4908353;29;20152;-55
2023/06/19 11:03:34;;;;;;;6.32;4.53;;;24.60;1.00;;;;;;4908056;29;20500;-56
2023/06/19 11:06:01;;;;;;;6.40;4.40;;;24.60;1.00;;;;;;4916160;29;20135;-56
2023/06/19 11:08:29;;;;;;;6.65;4.22;;;24.70;1.00;;;;;;4915852;29;20051;-55
2023/06/19 11:10:56;;;;;;;7.80;4.88;;;24.60;1.00;;;;;;4901670;29;20044;-55
2023/06/19 11:13:22;;;;;;;5.35;4.00;;;24.60;1.00;;;;;;4896640;29;20045;-56
2023/06/19 11:15:50;;;;;;;4.80;3.97;;;24.60;1.00;;;;;;4896948;29;20101;-53
2023/06/19 11:18:18;;;;;;;6.68;3.97;;;24.60;1.00;;;;;;4896809;29;20136;-57
2023/06/19 11:20:50;;;;;;;12.52;4.75;;;24.60;1.00;;;;;;4896703;29;20051;-56
2023/06/19 11:23:28;;;;;;;5.90;4.50;;;24.60;1.00;;;;;;4896225;29;20045;-56
2023/06/19 11:26:04;;;;;;;6.15;4.18;;;24.60;1.00;;;;;;4914575;29;20127;-56
2023/06/19 11:28:31;;;;;;;8.38;5.35;;;24.60;1.00;;;;;;4915859;29;20043;-55
2023/06/19 11:30:59;;;;;;;5.22;3.88;;;24.70;1.00;;;;;;4915619;29;20072;-54
2023/06/19 11:33:27;;;;;;;5.07;4.35;;;24.70;1.00;;;;;;4913874;29;20040;-55
2023/06/19 11:35:58;;;;;;;6.55;3.97;;;24.60;1.00;;;;;;4915666;29;20044;-57
2023/06/19 11:38:26;;;;;;;6.70;4.38;;;24.70;1.00;;;;;;4915657;29;20051;-54
2023/06/19 11:40:56;;;;;;;7.20;4.18;;;24.70;1.00;;;;;;4915432;29;20051;-54
2023/06/19 11:43:31;;;;;;;7.15;4.20;;;24.70;1.00;;;;;;4915493;29;20521;-52
2023/06/19 11:46:06;;;;;;;8.05;5.25;;;24.70;1.00;;;;;;4916748;29;20052;-56
2023/06/19 11:48:37;;;;;;;5.13;4.25;;;24.70;1.00;;;;;;4914771;29;20112;-53
2023/06/19 11:51:04;;;;;;;7.28;4.28;;;24.70;1.00;;;;;;4914881;29;20111;-57
2023/06/19 11:53:32;;;;;;;6.80;4.25;;;24.60;1.00;;;;;;4914659;29;20055;-55
2023/06/19 11:56:00;;;;;;;9.55;4.38;;;24.70;1.00;;;;;;4916955;29;20433;-56
2023/06/19 11:58:27;;;;;;;7.60;4.88;;;24.70;1.00;;;;;;4915157;29;20067;-56
2023/06/19 12:00:56;;;;;;;5.45;4.20;;;24.70;1.00;;;;;;4915060;29;20054;-56
2023/06/19 12:03:23;;;;;;;7.18;4.88;;;24.70;1.00;;;;;;4915025;29;20408;-55
2023/06/19 12:05:50;;;;;;;6.10;4.55;;;24.60;1.00;;;;;;4915187;29;20048;-57
2023/06/19 12:08:17;;;;;;;6.25;4.07;;;24.60;1.00;;;;;;4915611;29;20429;-57
2023/06/19 12:10:43;;;;;;;9.30;4.63;;;24.70;1.00;;;;;;4914923;29;20428;-56
2023/06/19 12:13:10;;;;;;;8.02;4.55;;;24.60;1.00;;;;;;4915015;29;20040;-56
2023/06/19 12:15:37;;;;;;;5.80;4.47;;;24.70;1.00;;;;;;4915382;29;20446;-56
2023/06/19 12:18:06;;;;;;;6.78;4.95;;;24.70;1.00;;;;;;4913751;29;20139;-57
2023/06/19 12:20:33;;;;;;;6.90;4.80;;;24.70;1.00;;;;;;4915083;29;20044;-55
2023/06/19 12:23:00;;;;;;;6.13;5.05;;;24.70;1.00;;;;;;4914930;29;20044;-55
2023/06/19 12:25:27;;;;;;;6.28;4.13;;;24.70;1.00;;;;;;4997212;23;20122;-57
2023/06/19 12:27:54;;;;;;;8.68;5.47;;;24.70;1.00;;;;;;4934124;29;20043;-57
2023/06/19 12:30:22;;;;;;;8.57;4.40;;;24.70;1.00;;;;;;4933812;29;20071;-56
2023/06/19 12:32:49;;;;;;;11.55;5.55;;;24.70;1.00;;;;;;4934811;29;20047;-57
2023/06/19 12:35:17;;;;;;;7.80;4.68;;;24.70;1.00;;;;;;4937623;29;20046;-57
2023/06/19 12:37:45;;;;;;;5.88;4.50;;;24.70;1.00;;;;;;4937634;29;20044;-56
2023/06/19 12:40:12;;;;;;;6.63;5.15;;;24.70;1.00;;;;;;4937688;29;20412;-55
2023/06/19 12:42:39;;;;;;;6.40;4.00;;;24.70;1.00;;;;;;4937341;29;20040;-55
2023/06/19 12:45:06;;;;;;;5.30;3.97;;;24.70;1.00;;;;;;4937886;29;20111;-55
2023/06/19 12:47:33;;;;;;;9.30;4.63;;;24.70;1.00;;;;;;4937316;29;20048;-58
2023/06/19 12:50:00;;;;;;;5.60;3.95;;;24.70;1.00;;;;;;4937338;29;20091;-58
2023/06/19 12:52:27;;;;;;;7.78;4.82;;;24.70;1.00;;;;;;4936931;29;20091;-56
2023/06/19 12:54:54;;;;;;;8.30;4.28;;;24.70;1.00;;;;;;4937857;29;20403;-57
2023/06/19 12:57:21;;;;;;;6.10;3.70;;;24.70;1.00;;;;;;5247649;23;20496;-57
2023/06/19 12:59:48;;;;;;;7.30;4.28;;;24.70;1.00;;;;;;4937328;29;20047;-56
2023/06/19 13:02:14;;;;;;;5.75;4.57;;;24.70;1.00;;;;;;4936911;29;20066;-56
2023/06/19 13:04:42;;;;;;;7.85;4.47;;;24.70;1.00;;;;;;4937182;29;20054;-54
2023/06/19 13:07:08;;;;;;;5.97;4.47;;;24.70;1.00;;;;;;4937221;29;20043;-57
2023/06/19 13:09:35;;;;;;;9.82;4.32;;;24.70;1.00;;;;;;4937179;29;20035;-57
2023/06/19 13:12:03;;;;;;;5.95;4.10;;;24.70;1.00;;;;;;4936558;29;20384;-58